Etusivu
METAR-TAF:

METAR-TAF

Lentoasemat :

Tacoma Narrows Airport

Tacoma, Washington, Yhdysvallat

Leveyspiiri: 47-16-03N, Pituuspiiri: 122-34-34W, korkeus merenpinnasta: 96 m

Tämänhetkinen sää

Tämä raportti tehtiin 34 minuuttia sitten, kello 08.53 UTC
Tuuli 4 kn etelästä
Lämpötila 12°C
Kosteus 71%
Ilmanpaine 1015 hPa
Näkyvyys: 16.1 km
Muutamia pilviä 5500 ft:n korkeudessa

METAR: KTIW 120853Z AUTO 17004KT 10SM FEW055 12/07 A2997 RMK AO2 SLP149 T01170072 51011

Aika: 02:27 (09:27 UTC)


TAF: puuttuu

Säähavainnot ja -ennusteet yli 4000 lentoasemalta (METAR- ja TAF-raportit).

Käytössä olevat sääasemat on merkitty karttaan keltaisilla ja punaisilla pisteillä.

Aseta hiiri pisteen päälle nähdäksesi sääaseman nimen.

Klikkaa sitten nähdäksesi säähavainnot ja -ennusteet.

Kartan vaihtaminen: klikkaa mustalla rastilla varustettuja vihreitä pisteitä, niin voit zoomata sisään; viivalla varustettua vihreää pistettä, niin voit zoomata ulos tai vihreitä nuolia, niin pääset viereisille kartoille.


METAR-TAF: